sensor_id;sensor_type;location;lat;lon;timestamp;pressure;altitude;pressure_sealevel;temperature;humidity
42633;BME280;28261;53.304;-6.284;2024-01-15T00:00:02;101109.56;;;1.59;100.00
42633;BME280;28261;53.304;-6.284;2024-01-15T00:02:12;101111.28;;;1.60;100.00
42633;BME280;28261;53.304;-6.284;2024-01-15T00:04:16;101112.22;;;1.58;100.00
42633;BME280;28261;53.304;-6.284;2024-01-15T00:06:21;101112.31;;;1.55;100.00
42633;BME280;28261;53.304;-6.284;2024-01-15T00:08:26;101111.50;;;1.51;100.00
42633;BME280;28261;53.304;-6.284;2024-01-15T00:10:31;101111.59;;;1.48;100.00
42633;BME280;28261;53.304;-6.284;2024-01-15T00:12:34;101107.28;;;1.45;100.00
42633;BME280;28261;53.304;-6.284;2024-01-15T00:14:40;101111.72;;;1.42;100.00
42633;BME280;28261;53.304;-6.284;2024-01-15T00:16:43;101110.94;;;1.38;100.00
42633;BME280;28261;53.304;-6.284;2024-01-15T00:18:47;101098.75;;;1.37;100.00
42633;BME280;28261;53.304;-6.284;2024-01-15T00:20:51;101107.44;;;1.38;100.00
42633;BME280;28261;53.304;-6.284;2024-01-15T00:22:54;101104.91;;;1.34;100.00
42633;BME280;28261;53.304;-6.284;2024-01-15T00:24:58;101109.28;;;1.32;100.00
42633;BME280;28261;53.304;-6.284;2024-01-15T00:27:02;101106.69;;;1.32;100.00
42633;BME280;28261;53.304;-6.284;2024-01-15T00:29:07;101102.38;;;1.30;100.00
42633;BME280;28261;53.304;-6.284;2024-01-15T00:31:12;101091.97;;;1.28;100.00
42633;BME280;28261;53.304;-6.284;2024-01-15T00:33:15;101091.16;;;1.26;100.00
42633;BME280;28261;53.304;-6.284;2024-01-15T00:35:19;101092.94;;;1.24;100.00
42633;BME280;28261;53.304;-6.284;2024-01-15T00:37:23;101092.09;;;1.24;100.00
42633;BME280;28261;53.304;-6.284;2024-01-15T00:39:27;101102.56;;;1.22;100.00
42633;BME280;28261;53.304;-6.284;2024-01-15T00:41:31;101098.25;;;1.21;100.00
42633;BME280;28261;53.304;-6.284;2024-01-15T00:43:33;101101.72;;;1.20;100.00
42633;BME280;28261;53.304;-6.284;2024-01-15T00:45:38;101100.00;;;1.21;100.00
42633;BME280;28261;53.304;-6.284;2024-01-15T00:47:43;101094.81;;;1.19;100.00
42633;BME280;28261;53.304;-6.284;2024-01-15T00:49:46;101097.44;;;1.19;100.00
42633;BME280;28261;53.304;-6.284;2024-01-15T00:51:49;101096.50;;;1.20;100.00
42633;BME280;28261;53.304;-6.284;2024-01-15T00:53:53;101093.06;;;1.20;100.00
42633;BME280;28261;53.304;-6.284;2024-01-15T00:55:57;101083.53;;;1.17;100.00
42633;BME280;28261;53.304;-6.284;2024-01-15T00:58:01;101089.59;;;1.17;100.00
42633;BME280;28261;53.304;-6.284;2024-01-15T01:00:06;101085.28;;;1.16;100.00
42633;BME280;28261;53.304;-6.284;2024-01-15T01:02:11;101082.72;;;1.15;100.00
42633;BME280;28261;53.304;-6.284;2024-01-15T01:04:16;101081.00;;;1.14;100.00
42633;BME280;28261;53.304;-6.284;2024-01-15T01:06:19;101082.75;;;1.12;100.00
42633;BME280;28261;53.304;-6.284;2024-01-15T01:08:23;101079.31;;;1.11;100.00
42633;BME280;28261;53.304;-6.284;2024-01-15T01:10:27;101074.97;;;1.10;100.00
42633;BME280;28261;53.304;-6.284;2024-01-15T01:12:31;101079.38;;;1.08;100.00
42633;BME280;28261;53.304;-6.284;2024-01-15T01:14:35;101067.22;;;1.07;100.00
42633;BME280;28261;53.304;-6.284;2024-01-15T01:16:38;101063.75;;;1.07;100.00
42633;BME280;28261;53.304;-6.284;2024-01-15T01:18:42;101063.75;;;1.07;100.00
42633;BME280;28261;53.304;-6.284;2024-01-15T01:20:47;101061.16;;;1.07;100.00
42633;BME280;28261;53.304;-6.284;2024-01-15T01:22:51;101063.75;;;1.07;100.00
42633;BME280;28261;53.304;-6.284;2024-01-15T01:24:55;101062.03;;;1.06;100.00
42633;BME280;28261;53.304;-6.284;2024-01-15T01:26:59;101065.53;;;1.05;100.00
42633;BME280;28261;53.304;-6.284;2024-01-15T01:29:01;101067.28;;;1.04;100.00
42633;BME280;28261;53.304;-6.284;2024-01-15T01:31:05;101068.13;;;1.05;100.00
42633;BME280;28261;53.304;-6.284;2024-01-15T01:33:11;101064.72;;;1.03;100.00
42633;BME280;28261;53.304;-6.284;2024-01-15T01:35:15;101063.88;;;1.00;100.00
42633;BME280;28261;53.304;-6.284;2024-01-15T01:37:19;101061.25;;;1.00;100.00
42633;BME280;28261;53.304;-6.284;2024-01-15T01:39:23;101062.16;;;0.99;100.00
42633;BME280;28261;53.304;-6.284;2024-01-15T01:41:26;101061.34;;;0.97;100.00
42633;BME280;28261;53.304;-6.284;2024-01-15T01:43:29;101056.97;;;0.98;100.00
42633;BME280;28261;53.304;-6.284;2024-01-15T01:45:32;101055.19;;;0.98;100.00
42633;BME280;28261;53.304;-6.284;2024-01-15T01:47:36;101057.81;;;1.00;100.00
42633;BME280;28261;53.304;-6.284;2024-01-15T01:49:41;101058.66;;;1.00;100.00
42633;BME280;28261;53.304;-6.284;2024-01-15T01:51:46;101054.31;;;0.99;100.00
42633;BME280;28261;53.304;-6.284;2024-01-15T01:53:52;101055.19;;;0.98;100.00
42633;BME280;28261;53.304;-6.284;2024-01-15T01:55:57;101050.91;;;0.97;100.00
42633;BME280;28261;53.304;-6.284;2024-01-15T01:58:02;101047.41;;;0.97;100.00
42633;BME280;28261;53.304;-6.284;2024-01-15T02:00:08;101049.22;;;0.95;100.00
42633;BME280;28261;53.304;-6.284;2024-01-15T02:02:12;101044.88;;;0.94;100.00
42633;BME280;28261;53.304;-6.284;2024-01-15T02:04:15;101044.88;;;0.94;100.00
42633;BME280;28261;53.304;-6.284;2024-01-15T02:06:23;101048.41;;;0.91;100.00
42633;BME280;28261;53.304;-6.284;2024-01-15T02:08:27;101047.59;;;0.89;100.00
42633;BME280;28261;53.304;-6.284;2024-01-15T02:10:32;101055.47;;;0.88;100.00
42633;BME280;28261;53.304;-6.284;2024-01-15T02:12:36;101047.69;;;0.84;100.00
42633;BME280;28261;53.304;-6.284;2024-01-15T02:14:40;101051.25;;;0.80;100.00
42633;BME280;28261;53.304;-6.284;2024-01-15T02:16:44;101047.84;;;0.77;100.00
42633;BME280;28261;53.304;-6.284;2024-01-15T02:18:46;101045.28;;;0.74;100.00
42633;BME280;28261;53.304;-6.284;2024-01-15T02:20:50;101041.00;;;0.73;100.00
42633;BME280;28261;53.304;-6.284;2024-01-15T02:22:54;101045.31;;;0.72;100.00
42633;BME280;28261;53.304;-6.284;2024-01-15T02:24:58;101045.38;;;0.71;100.00
42633;BME280;28261;53.304;-6.284;2024-01-15T02:27:01;101038.41;;;0.70;100.00
42633;BME280;28261;53.304;-6.284;2024-01-15T02:29:07;101039.28;;;0.70;100.00
42633;BME280;28261;53.304;-6.284;2024-01-15T02:31:10;101041.06;;;0.68;100.00
42633;BME280;28261;53.304;-6.284;2024-01-15T02:33:14;101037.59;;;0.67;100.00
42633;BME280;28261;53.304;-6.284;2024-01-15T02:35:18;101044.59;;;0.67;100.00
42633;BME280;28261;53.304;-6.284;2024-01-15T02:37:22;101040.22;;;0.67;100.00
42633;BME280;28261;53.304;-6.284;2024-01-15T02:39:25;101042.88;;;0.66;100.00
42633;BME280;28261;53.304;-6.284;2024-01-15T02:41:32;101048.94;;;0.66;100.00
42633;BME280;28261;53.304;-6.284;2024-01-15T02:43:36;101041.13;;;0.65;100.00
42633;BME280;28261;53.304;-6.284;2024-01-15T02:45:40;101033.28;;;0.66;100.00
42633;BME280;28261;53.304;-6.284;2024-01-15T02:47:44;101026.31;;;0.65;100.00
42633;BME280;28261;53.304;-6.284;2024-01-15T02:49:48;101038.50;;;0.66;100.00
42633;BME280;28261;53.304;-6.284;2024-01-15T02:51:51;101041.09;;;0.66;100.00
42633;BME280;28261;53.304;-6.284;2024-01-15T02:53:55;101034.16;;;0.67;100.00
42633;BME280;28261;53.304;-6.284;2024-01-15T02:55:59;101035.03;;;0.66;100.00
42633;BME280;28261;53.304;-6.284;2024-01-15T02:58:03;101042.88;;;0.66;100.00
42633;BME280;28261;53.304;-6.284;2024-01-15T03:00:08;101037.69;;;0.63;100.00
42633;BME280;28261;53.304;-6.284;2024-01-15T03:02:12;101038.63;;;0.60;100.00
42633;BME280;28261;53.304;-6.284;2024-01-15T03:04:16;101036.91;;;0.59;100.00
42633;BME280;28261;53.304;-6.284;2024-01-15T03:06:20;101036.06;;;0.57;100.00
42633;BME280;28261;53.304;-6.284;2024-01-15T03:08:23;101027.38;;;0.57;100.00
42633;BME280;28261;53.304;-6.284;2024-01-15T03:10:27;101040.47;;;0.55;100.00
42633;BME280;28261;53.304;-6.284;2024-01-15T03:12:31;101028.31;;;0.54;100.00
42633;BME280;28261;53.304;-6.284;2024-01-15T03:14:36;101030.88;;;0.56;100.00
42633;BME280;28261;53.304;-6.284;2024-01-15T03:16:40;101035.25;;;0.55;100.00
42633;BME280;28261;53.304;-6.284;2024-01-15T03:18:44;101029.16;;;0.55;100.00
42633;BME280;28261;53.304;-6.284;2024-01-15T03:20:48;101034.41;;;0.53;100.00
42633;BME280;28261;53.304;-6.284;2024-01-15T03:22:50;101035.31;;;0.52;100.00
42633;BME280;28261;53.304;-6.284;2024-01-15T03:24:54;101037.06;;;0.52;100.00
42633;BME280;28261;53.304;-6.284;2024-01-15T03:26:58;101040.53;;;0.52;100.00
42633;BME280;28261;53.304;-6.284;2024-01-15T03:29:01;101040.53;;;0.50;100.00
42633;BME280;28261;53.304;-6.284;2024-01-15T03:31:07;101035.38;;;0.49;100.00
42633;BME280;28261;53.304;-6.284;2024-01-15T03:33:11;101037.97;;;0.49;100.00
42633;BME280;28261;53.304;-6.284;2024-01-15T03:35:15;101038.88;;;0.48;100.00
42633;BME280;28261;53.304;-6.284;2024-01-15T03:37:19;101032.81;;;0.46;100.00
42633;BME280;28261;53.304;-6.284;2024-01-15T03:39:22;101036.31;;;0.45;100.00
42633;BME280;28261;53.304;-6.284;2024-01-15T03:41:26;101031.09;;;0.45;100.00
42633;BME280;28261;53.304;-6.284;2024-01-15T03:43:30;101036.31;;;0.45;100.00
42633;BME280;28261;53.304;-6.284;2024-01-15T03:45:34;101036.34;;;0.43;100.00
42633;BME280;28261;53.304;-6.284;2024-01-15T03:47:39;101039.84;;;0.42;100.00
42633;BME280;28261;53.304;-6.284;2024-01-15T03:49:42;101027.72;;;0.41;100.00
42633;BME280;28261;53.304;-6.284;2024-01-15T03:51:45;101031.16;;;0.42;100.00
42633;BME280;28261;53.304;-6.284;2024-01-15T03:53:49;101025.94;;;0.42;100.00
42633;BME280;28261;53.304;-6.284;2024-01-15T03:55:53;101032.00;;;0.42;100.00
42633;BME280;28261;53.304;-6.284;2024-01-15T03:57:56;101020.75;;;0.42;100.00
42633;BME280;28261;53.304;-6.284;2024-01-15T03:59:59;101016.38;;;0.42;100.00
42633;BME280;28261;53.304;-6.284;2024-01-15T04:02:05;101012.91;;;0.42;100.00
42633;BME280;28261;53.304;-6.284;2024-01-15T04:04:11;101009.41;;;0.43;100.00
42633;BME280;28261;53.304;-6.284;2024-01-15T04:06:18;101008.56;;;0.41;100.00
42633;BME280;28261;53.304;-6.284;2024-01-15T04:08:22;101012.06;;;0.41;100.00
42633;BME280;28261;53.304;-6.284;2024-01-15T04:10:26;101009.50;;;0.40;100.00
42633;BME280;28261;53.304;-6.284;2024-01-15T04:12:29;101010.34;;;0.40;100.00
42633;BME280;28261;53.304;-6.284;2024-01-15T04:14:33;101018.19;;;0.39;100.00
42633;BME280;28261;53.304;-6.284;2024-01-15T04:16:37;101031.25;;;0.39;100.00
42633;BME280;28261;53.304;-6.284;2024-01-15T04:18:41;101029.47;;;0.39;100.00
42633;BME280;28261;53.304;-6.284;2024-01-15T04:20:46;101025.16;;;0.40;100.00
42633;BME280;28261;53.304;-6.284;2024-01-15T04:22:51;101024.28;;;0.38;100.00
42633;BME280;28261;53.304;-6.284;2024-01-15T04:24:54;101023.41;;;0.39;100.00
42633;BME280;28261;53.304;-6.284;2024-01-15T04:26:58;101016.47;;;0.38;100.00
42633;BME280;28261;53.304;-6.284;2024-01-15T04:29:02;101011.31;;;0.35;100.00
42633;BME280;28261;53.304;-6.284;2024-01-15T04:31:05;101010.44;;;0.34;100.00
42633;BME280;28261;53.304;-6.284;2024-01-15T04:33:10;101005.31;;;0.31;100.00
42633;BME280;28261;53.304;-6.284;2024-01-15T04:35:14;101009.72;;;0.27;100.00
42633;BME280;28261;53.304;-6.284;2024-01-15T04:37:19;101021.94;;;0.25;100.00
42633;BME280;28261;53.304;-6.284;2024-01-15T04:39:23;101024.53;;;0.25;100.00
42633;BME280;28261;53.304;-6.284;2024-01-15T04:41:26;101010.66;;;0.23;100.00
42633;BME280;28261;53.304;-6.284;2024-01-15T04:43:29;101005.50;;;0.20;100.00
42633;BME280;28261;53.304;-6.284;2024-01-15T04:45:33;101002.91;;;0.20;100.00
42633;BME280;28261;53.304;-6.284;2024-01-15T04:47:37;101000.34;;;0.19;100.00
42633;BME280;28261;53.304;-6.284;2024-01-15T04:49:41;101002.97;;;0.17;100.00
42633;BME280;28261;53.304;-6.284;2024-01-15T04:51:44;101014.34;;;0.13;100.00
42633;BME280;28261;53.304;-6.284;2024-01-15T04:53:50;101027.38;;;0.13;100.00
42633;BME280;28261;53.304;-6.284;2024-01-15T04:55:53;101046.50;;;0.12;100.00
42633;BME280;28261;53.304;-6.284;2024-01-15T04:57:56;101056.09;;;0.11;100.00
42633;BME280;28261;53.304;-6.284;2024-01-15T05:00:00;101055.22;;;0.11;100.00
42633;BME280;28261;53.304;-6.284;2024-01-15T05:02:04;101044.78;;;0.11;100.00
42633;BME280;28261;53.304;-6.284;2024-01-15T05:04:08;101038.66;;;0.13;100.00
42633;BME280;28261;53.304;-6.284;2024-01-15T05:06:12;101025.59;;;0.15;100.00
42633;BME280;28261;53.304;-6.284;2024-01-15T05:08:16;101016.91;;;0.14;100.00
42633;BME280;28261;53.304;-6.284;2024-01-15T05:10:21;101018.72;;;0.12;100.00
42633;BME280;28261;53.304;-6.284;2024-01-15T05:12:25;101032.63;;;0.11;100.00
42633;BME280;28261;53.304;-6.284;2024-01-15T05:14:29;101037.81;;;0.13;100.00
42633;BME280;28261;53.304;-6.284;2024-01-15T05:16:32;101041.31;;;0.12;100.00
42633;BME280;28261;53.304;-6.284;2024-01-15T05:18:36;101043.91;;;0.12;100.00
42633;BME280;28261;53.304;-6.284;2024-01-15T05:20:39;101045.63;;;0.13;100.00
42633;BME280;28261;53.304;-6.284;2024-01-15T05:22:43;101049.09;;;0.13;100.00
42633;BME280;28261;53.304;-6.284;2024-01-15T05:24:46;101041.25;;;0.13;100.00
42633;BME280;28261;53.304;-6.284;2024-01-15T05:26:51;101045.59;;;0.14;100.00
42633;BME280;28261;53.304;-6.284;2024-01-15T05:28:55;101053.44;;;0.13;100.00
42633;BME280;28261;53.304;-6.284;2024-01-15T05:30:59;101050.00;;;0.11;100.00
42633;BME280;28261;53.304;-6.284;2024-01-15T05:33:04;101044.78;;;0.11;100.00
42633;BME280;28261;53.304;-6.284;2024-01-15T05:35:10;101044.78;;;0.11;100.00
42633;BME280;28261;53.304;-6.284;2024-01-15T05:37:14;101050.88;;;0.11;100.00
42633;BME280;28261;53.304;-6.284;2024-01-15T05:39:18;101048.25;;;0.13;100.00
42633;BME280;28261;53.304;-6.284;2024-01-15T05:41:24;101053.50;;;0.11;100.00
42633;BME280;28261;53.304;-6.284;2024-01-15T05:43:30;101065.63;;;0.11;100.00
42633;BME280;28261;53.304;-6.284;2024-01-15T05:45:34;101055.22;;;0.11;100.00
42633;BME280;28261;53.304;-6.284;2024-01-15T05:47:38;101059.63;;;0.09;100.00
42633;BME280;28261;53.304;-6.284;2024-01-15T05:49:42;101054.44;;;0.07;100.00
42633;BME280;28261;53.304;-6.284;2024-01-15T05:51:46;101057.03;;;0.07;100.00
42633;BME280;28261;53.304;-6.284;2024-01-15T05:53:49;101043.13;;;0.07;100.00
42633;BME280;28261;53.304;-6.284;2024-01-15T05:55:53;101041.44;;;0.06;100.00
42633;BME280;28261;53.304;-6.284;2024-01-15T05:57:58;101039.72;;;0.03;100.00
42633;BME280;28261;53.304;-6.284;2024-01-15T06:00:04;101039.75;;;0.02;100.00
42633;BME280;28261;53.304;-6.284;2024-01-15T06:02:08;101039.78;;;-0.02;100.00
42633;BME280;28261;53.304;-6.284;2024-01-15T06:04:12;101042.44;;;-0.03;100.00
42633;BME280;28261;53.304;-6.284;2024-01-15T06:06:16;101041.59;;;-0.04;100.00
42633;BME280;28261;53.304;-6.284;2024-01-15T06:08:20;101049.41;;;-0.04;100.00
42633;BME280;28261;53.304;-6.284;2024-01-15T06:10:24;101052.00;;;-0.04;100.00
42633;BME280;28261;53.304;-6.284;2024-01-15T06:12:28;101055.50;;;-0.05;100.00
42633;BME280;28261;53.304;-6.284;2024-01-15T06:14:31;101063.38;;;-0.08;100.00
42633;BME280;28261;53.304;-6.284;2024-01-15T06:16:37;101057.28;;;-0.07;100.00
42633;BME280;28261;53.304;-6.284;2024-01-15T06:18:40;101065.97;;;-0.08;100.00
42633;BME280;28261;53.304;-6.284;2024-01-15T06:20:43;101066.88;;;-0.09;100.00
42633;BME280;28261;53.304;-6.284;2024-01-15T06:22:47;101052.09;;;-0.10;100.00
42633;BME280;28261;53.304;-6.284;2024-01-15T06:24:50;101060.84;;;-0.11;100.00
42633;BME280;28261;53.304;-6.284;2024-01-15T06:26:54;101054.81;;;-0.14;100.00
42633;BME280;28261;53.304;-6.284;2024-01-15T06:28:58;101048.75;;;-0.17;100.00
42633;BME280;28261;53.304;-6.284;2024-01-15T06:31:00;101048.78;;;-0.18;100.00
42633;BME280;28261;53.304;-6.284;2024-01-15T06:33:06;101054.00;;;-0.18;100.00
42633;BME280;28261;53.304;-6.284;2024-01-15T06:35:10;101058.34;;;-0.19;100.00
42633;BME280;28261;53.304;-6.284;2024-01-15T06:37:14;101057.47;;;-0.18;100.00
42633;BME280;28261;53.304;-6.284;2024-01-15T06:39:18;101061.81;;;-0.18;100.00
42633;BME280;28261;53.304;-6.284;2024-01-15T06:41:22;101067.88;;;-0.16;100.00
42633;BME280;28261;53.304;-6.284;2024-01-15T06:43:27;101067.88;;;-0.16;100.00
42633;BME280;28261;53.304;-6.284;2024-01-15T06:45:30;101071.28;;;-0.14;100.00
42633;BME280;28261;53.304;-6.284;2024-01-15T06:47:34;101079.13;;;-0.15;100.00
42633;BME280;28261;53.304;-6.284;2024-01-15T06:49:39;101086.97;;;-0.17;100.00
42633;BME280;28261;53.304;-6.284;2024-01-15T06:51:43;101074.84;;;-0.18;100.00
42633;BME280;28261;53.304;-6.284;2024-01-15T06:53:50;101073.13;;;-0.19;100.00
42633;BME280;28261;53.304;-6.284;2024-01-15T06:55:54;101061.84;;;-0.20;100.00
42633;BME280;28261;53.304;-6.284;2024-01-15T06:57:58;101056.66;;;-0.21;100.00
42633;BME280;28261;53.304;-6.284;2024-01-15T07:00:02;101062.75;;;-0.22;100.00
42633;BME280;28261;53.304;-6.284;2024-01-15T07:02:10;101056.72;;;-0.24;100.00
42633;BME280;28261;53.304;-6.284;2024-01-15T07:04:12;101065.41;;;-0.25;100.00
42633;BME280;28261;53.304;-6.284;2024-01-15T07:06:18;101065.44;;;-0.27;100.00
42633;BME280;28261;53.304;-6.284;2024-01-15T07:08:22;101067.19;;;-0.27;100.00
42633;BME280;28261;53.304;-6.284;2024-01-15T07:10:26;101074.16;;;-0.29;100.00
42633;BME280;28261;53.304;-6.284;2024-01-15T07:12:29;101076.75;;;-0.29;100.00
42633;BME280;28261;53.304;-6.284;2024-01-15T07:14:33;101070.69;;;-0.28;100.00
42633;BME280;28261;53.304;-6.284;2024-01-15T07:16:37;101075.88;;;-0.28;100.00
42633;BME280;28261;53.304;-6.284;2024-01-15T07:18:41;101078.50;;;-0.28;100.00
42633;BME280;28261;53.304;-6.284;2024-01-15T07:20:45;101070.72;;;-0.30;100.00
42633;BME280;28261;53.304;-6.284;2024-01-15T07:22:51;101078.50;;;-0.28;100.00
42633;BME280;28261;53.304;-6.284;2024-01-15T07:24:55;101076.75;;;-0.29;100.00
42633;BME280;28261;53.304;-6.284;2024-01-15T07:26:58;101078.56;;;-0.31;100.00
42633;BME280;28261;53.304;-6.284;2024-01-15T07:29:02;101077.72;;;-0.35;100.00
42633;BME280;28261;53.304;-6.284;2024-01-15T07:31:06;101077.75;;;-0.37;100.00
42633;BME280;28261;53.304;-6.284;2024-01-15T07:33:11;101082.13;;;-0.39;100.00
42633;BME280;28261;53.304;-6.284;2024-01-15T07:35:16;101089.09;;;-0.41;100.00
42633;BME280;28261;53.304;-6.284;2024-01-15T07:37:20;101094.31;;;-0.41;100.00
42633;BME280;28261;53.304;-6.284;2024-01-15T07:39:27;101095.19;;;-0.42;100.00
42633;BME280;28261;53.304;-6.284;2024-01-15T07:41:31;101098.69;;;-0.43;100.00
42633;BME280;28261;53.304;-6.284;2024-01-15T07:43:35;101103.06;;;-0.45;100.00
42633;BME280;28261;53.304;-6.284;2024-01-15T07:45:38;101109.13;;;-0.44;100.00
42633;BME280;28261;53.304;-6.284;2024-01-15T07:47:46;101116.06;;;-0.43;100.00
42633;BME280;28261;53.304;-6.284;2024-01-15T07:49:52;101123.84;;;-0.42;100.00
42633;BME280;28261;53.304;-6.284;2024-01-15T07:51:56;101124.69;;;-0.41;100.00
42633;BME280;28261;53.304;-6.284;2024-01-15T07:54:00;101124.69;;;-0.41;100.00
42633;BME280;28261;53.304;-6.284;2024-01-15T07:56:05;101124.69;;;-0.41;100.00
42633;BME280;28261;53.304;-6.284;2024-01-15T07:58:09;101128.19;;;-0.41;100.00
42633;BME280;28261;53.304;-6.284;2024-01-15T08:00:18;101134.28;;;-0.42;100.00
42633;BME280;28261;53.304;-6.284;2024-01-15T08:02:21;101127.31;;;-0.43;100.00
42633;BME280;28261;53.304;-6.284;2024-01-15T08:04:24;101129.94;;;-0.43;100.00
42633;BME280;28261;53.304;-6.284;2024-01-15T08:06:29;101120.38;;;-0.44;100.00
42633;BME280;28261;53.304;-6.284;2024-01-15T08:08:33;101117.81;;;-0.45;100.00
42633;BME280;28261;53.304;-6.284;2024-01-15T08:10:36;101122.19;;;-0.46;100.00
42633;BME280;28261;53.304;-6.284;2024-01-15T08:12:42;101122.19;;;-0.47;100.00
42633;BME280;28261;53.304;-6.284;2024-01-15T08:14:46;101108.31;;;-0.49;100.00
42633;BME280;28261;53.304;-6.284;2024-01-15T08:16:49;101117.03;;;-0.49;100.00
42633;BME280;28261;53.304;-6.284;2024-01-15T08:18:53;101117.88;;;-0.48;100.00
42633;BME280;28261;53.304;-6.284;2024-01-15T08:20:57;101123.06;;;-0.48;100.00
42633;BME280;28261;53.304;-6.284;2024-01-15T08:23:01;101123.06;;;-0.48;100.00
42633;BME280;28261;53.304;-6.284;2024-01-15T08:25:05;101120.47;;;-0.48;100.00
42633;BME280;28261;53.304;-6.284;2024-01-15T08:27:09;101127.41;;;-0.47;100.00
42633;BME280;28261;53.304;-6.284;2024-01-15T08:29:14;101135.22;;;-0.47;100.00
42633;BME280;28261;53.304;-6.284;2024-01-15T08:31:18;101139.53;;;-0.45;100.00
42633;BME280;28261;53.304;-6.284;2024-01-15T08:33:21;101132.59;;;-0.46;100.00
42633;BME280;28261;53.304;-6.284;2024-01-15T08:35:25;101130.00;;;-0.46;100.00
42633;BME280;28261;53.304;-6.284;2024-01-15T08:37:29;101127.38;;;-0.46;100.00
42633;BME280;28261;53.304;-6.284;2024-01-15T08:39:33;101128.22;;;-0.45;100.00
42633;BME280;28261;53.304;-6.284;2024-01-15T08:41:37;101126.50;;;-0.45;100.00
42633;BME280;28261;53.304;-6.284;2024-01-15T08:43:41;101127.38;;;-0.46;100.00
42633;BME280;28261;53.304;-6.284;2024-01-15T08:45:46;101135.16;;;-0.44;100.00
42633;BME280;28261;53.304;-6.284;2024-01-15T08:47:51;101146.41;;;-0.41;100.00
42633;BME280;28261;53.304;-6.284;2024-01-15T08:49:55;101147.25;;;-0.39;100.00
42633;BME280;28261;53.304;-6.284;2024-01-15T08:51:59;101147.19;;;-0.34;100.00
42633;BME280;28261;53.304;-6.284;2024-01-15T08:54:03;101139.34;;;-0.32;100.00
42633;BME280;28261;53.304;-6.284;2024-01-15T08:56:06;101145.41;;;-0.32;100.00
42633;BME280;28261;53.304;-6.284;2024-01-15T08:58:10;101138.44;;;-0.30;100.00
42633;BME280;28261;53.304;-6.284;2024-01-15T09:00:15;101148.84;;;-0.28;100.00
42633;BME280;28261;53.304;-6.284;2024-01-15T09:02:20;101149.66;;;-0.26;100.00
42633;BME280;28261;53.304;-6.284;2024-01-15T09:04:24;101156.59;;;-0.25;100.00
42633;BME280;28261;53.304;-6.284;2024-01-15T09:06:28;101148.75;;;-0.24;100.00
42633;BME280;28261;53.304;-6.284;2024-01-15T09:08:32;101145.28;;;-0.24;100.00
42633;BME280;28261;53.304;-6.284;2024-01-15T09:10:36;101149.59;;;-0.22;100.00
42633;BME280;28261;53.304;-6.284;2024-01-15T09:12:39;101142.63;;;-0.21;100.00
42633;BME280;28261;53.304;-6.284;2024-01-15T09:14:43;101151.31;;;-0.19;100.00
42633;BME280;28261;53.304;-6.284;2024-01-15T09:16:47;101140.84;;;-0.18;100.00
42633;BME280;28261;53.304;-6.284;2024-01-15T09:18:52;101142.56;;;-0.15;100.00
42633;BME280;28261;53.304;-6.284;2024-01-15T09:20:59;101141.66;;;-0.14;100.00
42633;BME280;28261;53.304;-6.284;2024-01-15T09:23:02;101151.13;;;-0.10;100.00
42633;BME280;28261;53.304;-6.284;2024-01-15T09:25:07;101151.97;;;-0.06;100.00
42633;BME280;28261;53.304;-6.284;2024-01-15T09:27:10;101158.84;;;-0.02;100.00
42633;BME280;28261;53.304;-6.284;2024-01-15T09:29:14;101159.66;;;0.02;100.00
42633;BME280;28261;53.304;-6.284;2024-01-15T09:31:19;101157.03;;;0.03;100.00
42633;BME280;28261;53.304;-6.284;2024-01-15T09:33:23;101155.28;;;0.04;100.00
42633;BME280;28261;53.304;-6.284;2024-01-15T09:35:29;101145.72;;;0.03;100.00
42633;BME280;28261;53.304;-6.284;2024-01-15T09:37:33;101139.63;;;0.04;100.00
42633;BME280;28261;53.304;-6.284;2024-01-15T09:39:48;101155.22;;;0.07;100.00
42633;BME280;28261;53.304;-6.284;2024-01-15T09:41:52;101153.47;;;0.07;100.00
42633;BME280;28261;53.304;-6.284;2024-01-15T09:43:57;101159.56;;;0.08;100.00
42633;BME280;28261;53.304;-6.284;2024-01-15T09:46:03;101169.06;;;0.10;100.00
42633;BME280;28261;53.304;-6.284;2024-01-15T09:48:08;101169.06;;;0.10;100.00
42633;BME280;28261;53.304;-6.284;2024-01-15T09:50:13;101175.13;;;0.12;100.00
42633;BME280;28261;53.304;-6.284;2024-01-15T09:52:19;101179.41;;;0.15;100.00
42633;BME280;28261;53.304;-6.284;2024-01-15T09:54:23;101182.00;;;0.15;100.00
42633;BME280;28261;53.304;-6.284;2024-01-15T09:56:26;101179.41;;;0.16;100.00
42633;BME280;28261;53.304;-6.284;2024-01-15T09:58:30;101184.63;;;0.16;100.00
42633;BME280;28261;53.304;-6.284;2024-01-15T10:00:36;101184.59;;;0.18;100.00
42633;BME280;28261;53.304;-6.284;2024-01-15T10:02:44;101178.47;;;0.19;100.00
42633;BME280;28261;53.304;-6.284;2024-01-15T10:04:47;101166.31;;;0.20;100.00
42633;BME280;28261;53.304;-6.284;2024-01-15T10:06:51;101168.91;;;0.21;100.00
42633;BME280;28261;53.304;-6.284;2024-01-15T10:08:57;101162.84;;;0.21;100.00
42633;BME280;28261;53.304;-6.284;2024-01-15T10:11:02;101168.03;;;0.21;100.00
42633;BME280;28261;53.304;-6.284;2024-01-15T10:13:07;101168.88;;;0.23;100.00
42633;BME280;28261;53.304;-6.284;2024-01-15T10:15:10;101165.34;;;0.25;100.00
42633;BME280;28261;53.304;-6.284;2024-01-15T10:17:15;101167.88;;;0.30;100.00
42633;BME280;28261;53.304;-6.284;2024-01-15T10:19:20;101176.47;;;0.35;100.00
42633;BME280;28261;53.304;-6.284;2024-01-15T10:21:24;101187.63;;;0.43;100.00
42633;BME280;28261;53.304;-6.284;2024-01-15T10:23:28;101178.03;;;0.47;100.00
42633;BME280;28261;53.304;-6.284;2024-01-15T10:25:35;101180.50;;;0.53;100.00
42633;BME280;28261;53.304;-6.284;2024-01-15T10:27:39;101172.63;;;0.56;100.00
42633;BME280;28261;53.304;-6.284;2024-01-15T10:29:43;101174.31;;;0.60;100.00
42633;BME280;28261;53.304;-6.284;2024-01-15T10:31:47;101165.53;;;0.64;100.00
42633;BME280;28261;53.304;-6.284;2024-01-15T10:33:51;101158.44;;;0.70;100.00
42633;BME280;28261;53.304;-6.284;2024-01-15T10:35:56;101167.09;;;0.73;100.00
42633;BME280;28261;53.304;-6.284;2024-01-15T10:38:00;101167.88;;;0.78;100.00